Time;durP1;ratioP1;P1;durP2;ratioP2;P2;SDS_P1;SDS_P2;PMS_P1;PMS_P2;Temp;Humidity;BMP_temperature;BMP_pressure;BME280_temperature;BME280_humidity;BME280_pressure;Samples;Min_cycle;Max_cycle;Signal;HPM_P1;HPM_P2
2021/01/06 00:01:10;;;;;;;12.10;5.22;;;2.30;96.40;;;;;;5067504;28;20048;-65
2021/01/06 00:03:36;;;;;;;11.07;5.22;;;2.30;96.40;;;;;;5067397;28;20028;-66
2021/01/06 00:06:11;;;;;;;7.10;4.15;;;2.30;96.20;;;;;;5055023;28;20343;-67
2021/01/06 00:08:37;;;;;;;7.65;4.43;;;2.30;96.10;;;;;;5047906;28;20064;-66
2021/01/06 00:11:03;;;;;;;13.23;4.53;;;2.30;95.90;;;;;;5052910;28;20487;-66
2021/01/06 00:13:29;;;;;;;8.65;4.43;;;2.30;95.70;;;;;;5049403;28;20099;-66
2021/01/06 00:15:56;;;;;;;9.02;4.47;;;2.30;95.70;;;;;;5068649;28;20051;-66
2021/01/06 00:18:24;;;;;;;9.10;3.92;;;2.30;95.40;;;;;;5068460;28;20052;-66
2021/01/06 00:20:50;;;;;;;8.68;3.90;;;2.30;95.30;;;;;;5067618;28;20042;-66
2021/01/06 00:23:16;;;;;;;9.35;3.38;;;2.30;94.70;;;;;;5068906;28;20041;-66
2021/01/06 00:25:41;;;;;;;8.38;3.60;;;2.30;94.60;;;;;;5066508;28;20104;-66
2021/01/06 00:28:13;;;;;;;6.35;3.55;;;2.30;94.70;;;;;;5068258;28;20023;-66
2021/01/06 00:30:42;;;;;;;7.50;3.42;;;2.30;94.80;;;;;;5066530;28;20456;-66
2021/01/06 00:33:12;;;;;;;5.97;3.53;;;2.30;94.70;;;;;;5067262;28;20090;-66
2021/01/06 00:35:38;;;;;;;7.75;3.15;;;2.30;94.70;;;;;;5067096;28;20044;-65
2021/01/06 00:38:04;;;;;;;6.70;3.67;;;2.20;94.40;;;;;;5065881;28;20028;-66
2021/01/06 00:40:33;;;;;;;6.75;3.75;;;2.30;94.50;;;;;;5062045;28;20060;-66
2021/01/06 00:43:01;;;;;;;7.45;3.65;;;2.20;94.60;;;;;;5066125;28;20512;-66
2021/01/06 00:45:27;;;;;;;9.02;3.65;;;2.20;94.80;;;;;;5066414;28;20028;-66
2021/01/06 00:47:53;;;;;;;6.75;3.67;;;2.10;95.00;;;;;;5067916;28;20033;-66
2021/01/06 00:50:29;;;;;;;9.25;3.97;;;2.10;95.10;;;;;;5065973;28;20251;-66
2021/01/06 00:53:02;;;;;;;10.32;4.00;;;2.10;95.30;;;;;;5066338;28;20055;-66
2021/01/06 00:55:28;;;;;;;7.72;4.35;;;2.10;95.50;;;;;;5066893;28;20033;-66
2021/01/06 00:57:55;;;;;;;8.98;4.22;;;2.10;95.30;;;;;;5067672;28;20139;-66
2021/01/06 01:00:23;;;;;;;7.50;4.03;;;2.00;95.40;;;;;;5065443;28;20029;-66
2021/01/06 01:02:51;;;;;;;6.88;4.00;;;2.00;95.40;;;;;;5065696;28;20039;-66
2021/01/06 01:05:23;;;;;;;8.15;4.32;;;2.00;95.40;;;;;;5054062;28;20112;-66
2021/01/06 01:07:49;;;;;;;8.65;4.00;;;1.90;95.40;;;;;;5067604;28;20090;-66
2021/01/06 01:10:37;;;;;;;6.88;3.50;;;1.90;95.50;;;;;;5079052;28;20052;-66
2021/01/06 01:13:08;;;;;;;7.03;3.88;;;1.80;95.50;;;;;;5063227;28;20116;-66
2021/01/06 01:15:35;;;;;;;10.35;4.05;;;1.70;95.50;;;;;;5065719;28;20755;-66
2021/01/06 01:18:03;;;;;;;8.85;3.90;;;1.70;95.50;;;;;;5066565;28;20274;-65
2021/01/06 01:20:29;;;;;;;7.55;3.97;;;1.70;95.60;;;;;;5080517;28;20047;-66
2021/01/06 01:22:55;;;;;;;11.43;3.90;;;1.70;95.70;;;;;;5066317;28;20036;-66
2021/01/06 01:25:24;;;;;;;7.13;3.92;;;1.70;95.70;;;;;;5057851;28;20489;-66
2021/01/06 01:27:50;;;;;;;7.68;3.70;;;1.60;95.60;;;;;;5062942;28;20174;-66
2021/01/06 01:30:22;;;;;;;6.95;3.70;;;1.70;95.70;;;;;;5065287;28;20078;-65
2021/01/06 01:32:49;;;;;;;7.45;4.40;;;1.60;95.70;;;;;;5065862;28;20066;-66
2021/01/06 01:35:18;;;;;;;9.45;4.03;;;1.60;95.80;;;;;;5064838;28;20035;-66
2021/01/06 01:37:46;;;;;;;7.40;3.50;;;1.60;95.80;;;;;;5046652;28;20052;-66
2021/01/06 01:40:22;;;;;;;9.48;4.05;;;1.60;95.90;;;;;;5058033;28;20036;-66
2021/01/06 01:43:04;;;;;;;11.45;4.10;;;1.60;95.80;;;;;;5066640;28;20028;-66
2021/01/06 01:45:45;;;;;;;9.40;3.92;;;1.50;95.80;;;;;;5065382;28;20245;-66
2021/01/06 01:48:31;;;;;;;8.73;3.70;;;1.50;95.80;;;;;;5067111;28;20032;-66
2021/01/06 01:51:03;;;;;;;7.65;3.95;;;1.50;95.90;;;;;;5037254;28;20063;-67
2021/01/06 01:53:39;;;;;;;7.72;3.97;;;1.50;95.80;;;;;;5066418;28;20396;-66
2021/01/06 01:56:09;;;;;;;7.38;3.50;;;1.50;95.70;;;;;;5065317;28;20445;-66
2021/01/06 01:58:37;;;;;;;6.30;3.47;;;1.60;95.70;;;;;;5065667;28;20032;-66
2021/01/06 02:01:03;;;;;;;7.50;3.63;;;1.50;95.80;;;;;;5063341;28;20043;-66
2021/01/06 02:03:33;;;;;;;10.40;3.65;;;1.50;95.70;;;;;;5066533;28;20071;-66
2021/01/06 02:06:08;;;;;;;8.17;4.00;;;1.50;95.70;;;;;;5065763;28;20290;-66
2021/01/06 02:08:40;;;;;;;7.75;3.72;;;1.60;95.60;;;;;;5064311;28;20024;-66
2021/01/06 02:11:33;;;;;;;10.32;4.07;;;1.60;95.50;;;;;;5064778;28;20036;-66
2021/01/06 02:14:26;;;;;;;6.53;3.70;;;1.60;95.30;;;;;;5049828;28;20040;-66
2021/01/06 02:16:59;;;;;;;8.70;4.22;;;1.60;95.30;;;;;;5063348;28;20036;-66
2021/01/06 02:19:31;;;;;;;8.55;4.18;;;1.60;95.30;;;;;;5064412;28;20028;-66
2021/01/06 02:21:58;;;;;;;9.80;4.38;;;1.60;95.10;;;;;;5063079;28;20465;-66
2021/01/06 02:24:24;;;;;;;11.25;4.22;;;1.60;95.10;;;;;;5064457;28;20086;-69
2021/01/06 02:26:50;;;;;;;11.60;3.95;;;1.60;95.10;;;;;;5065787;28;20024;-69
2021/01/06 02:29:17;;;;;;;9.10;4.30;;;1.60;95.10;;;;;;5064530;28;20116;-68
2021/01/06 02:31:43;;;;;;;8.75;3.72;;;1.60;95.00;;;;;;5065370;28;20504;-68
2021/01/06 02:34:10;;;;;;;8.50;4.00;;;1.70;95.00;;;;;;5064673;28;20396;-67
2021/01/06 02:36:36;;;;;;;6.50;3.45;;;1.60;94.90;;;;;;5065635;28;20028;-68
2021/01/06 02:39:06;;;;;;;7.60;4.07;;;1.60;95.00;;;;;;5063616;28;20613;-68
2021/01/06 02:41:32;;;;;;;7.80;4.07;;;1.60;95.00;;;;;;5065373;28;20243;-68
2021/01/06 02:43:58;;;;;;;8.63;4.07;;;1.60;95.00;;;;;;5064815;28;20336;-68
2021/01/06 02:46:23;;;;;;;8.07;4.00;;;1.60;94.50;;;;;;5064749;28;20033;-68
2021/01/06 02:48:49;;;;;;;7.35;3.72;;;1.60;94.80;;;;;;5064547;28;20606;-69
2021/01/06 02:51:27;;;;;;;7.50;3.33;;;1.60;94.60;;;;;;5063058;28;20040;-68
2021/01/06 02:53:57;;;;;;;7.15;3.35;;;1.60;94.80;;;;;;5064973;28;20024;-68
2021/01/06 02:56:23;;;;;;;10.38;3.58;;;1.60;94.80;;;;;;5063801;28;20040;-69
2021/01/06 02:58:52;;;;;;;8.35;3.50;;;1.60;94.80;;;;;;5064685;28;20066;-69
2021/01/06 03:01:23;;;;;;;9.15;3.80;;;1.60;94.70;;;;;;5061408;28;20446;-68
2021/01/06 03:03:51;;;;;;;7.20;3.30;;;1.60;94.60;;;;;;5060713;28;20109;-69
2021/01/06 03:06:25;;;;;;;5.38;3.10;;;1.60;94.80;;;;;;5066504;28;20063;-69
2021/01/06 03:08:50;;;;;;;5.97;3.38;;;1.60;95.00;;;;;;5066846;28;20021;-69
2021/01/06 03:11:16;;;;;;;7.82;3.58;;;1.60;94.80;;;;;;5068414;28;20031;-68
2021/01/06 03:13:42;;;;;;;8.18;3.88;;;1.60;94.50;;;;;;5070906;28;20107;-69
2021/01/06 03:16:08;;;;;;;6.93;3.22;;;1.60;94.50;;;;;;5070283;28;20246;-68
2021/01/06 03:18:35;;;;;;;6.93;3.10;;;1.70;94.50;;;;;;5071089;28;20098;-68
2021/01/06 03:21:04;;;;;;;6.75;3.78;;;1.70;94.40;;;;;;5070270;28;20055;-68
2021/01/06 03:23:34;;;;;;;5.78;3.17;;;1.60;94.60;;;;;;5063360;28;20021;-66
2021/01/06 03:26:04;;;;;;;7.20;3.78;;;1.60;94.50;;;;;;5069372;28;20033;-66
2021/01/06 03:28:33;;;;;;;7.47;3.85;;;1.60;94.50;;;;;;5070870;28;20029;-66
2021/01/06 03:31:03;;;;;;;6.18;2.88;;;1.60;94.60;;;;;;5070365;28;20127;-66
2021/01/06 03:33:37;;;;;;;8.57;3.53;;;1.70;94.60;;;;;;5070625;28;20056;-66
2021/01/06 03:36:08;;;;;;;7.55;3.30;;;1.60;94.40;;;;;;5070075;28;20480;-66
2021/01/06 03:38:48;;;;;;;8.75;3.65;;;1.60;94.50;;;;;;5071435;28;20427;-66
2021/01/06 03:41:14;;;;;;;6.68;3.17;;;1.60;94.50;;;;;;5070079;28;20054;-68
2021/01/06 03:43:45;;;;;;;8.63;3.47;;;1.60;94.50;;;;;;5053592;28;20082;-65
2021/01/06 03:46:26;;;;;;;7.68;3.30;;;1.60;94.70;;;;;;5069834;28;20449;-66
2021/01/06 03:48:58;;;;;;;7.07;3.78;;;1.60;94.70;;;;;;5071536;28;20153;-66
2021/01/06 03:51:51;;;;;;;6.15;3.20;;;1.70;94.80;;;;;;5069406;28;20163;-66
2021/01/06 03:54:33;;;;;;;7.35;3.72;;;1.60;94.70;;;;;;5085905;28;20468;-66
2021/01/06 03:57:01;;;;;;;6.00;3.20;;;1.70;94.90;;;;;;5071460;28;20033;-66
2021/01/06 03:59:32;;;;;;;7.20;3.17;;;1.70;94.80;;;;;;5083099;28;20032;-66
2021/01/06 04:02:22;;;;;;;5.97;3.17;;;1.60;94.60;;;;;;5070958;28;20020;-66
2021/01/06 04:04:53;;;;;;;8.30;3.90;;;1.70;94.50;;;;;;5069754;28;20467;-66
2021/01/06 04:07:29;;;;;;;8.95;3.60;;;1.70;94.60;;;;;;5072151;28;20136;-66
2021/01/06 04:10:04;;;;;;;7.68;3.35;;;1.60;94.50;;;;;;5069295;28;20044;-67
2021/01/06 04:12:29;;;;;;;7.38;3.30;;;1.60;94.60;;;;;;5086094;28;20089;-66
2021/01/06 04:14:56;;;;;;;7.72;3.70;;;1.60;94.30;;;;;;5050780;28;20162;-66
2021/01/06 04:17:27;;;;;;;7.25;3.83;;;1.60;94.40;;;;;;5068518;28;20130;-66
2021/01/06 04:20:05;;;;;;;9.27;3.83;;;1.60;94.20;;;;;;5064653;28;20109;-66
2021/01/06 04:22:38;;;;;;;8.23;4.40;;;1.60;94.20;;;;;;5067882;28;20044;-66
2021/01/06 04:25:10;;;;;;;8.95;4.00;;;1.60;94.30;;;;;;5067108;28;20020;-66
2021/01/06 04:27:36;;;;;;;7.72;4.30;;;1.60;94.20;;;;;;5068043;28;20093;-66
2021/01/06 04:30:05;;;;;;;8.77;4.35;;;1.60;94.10;;;;;;5066122;28;20036;-66
2021/01/06 04:32:32;;;;;;;7.97;4.20;;;1.60;94.20;;;;;;5067288;28;20161;-66
2021/01/06 04:34:58;;;;;;;10.30;4.75;;;1.60;94.00;;;;;;5066835;28;20032;-66
2021/01/06 04:37:24;;;;;;;7.80;4.38;;;1.60;94.30;;;;;;5068177;28;20024;-66
2021/01/06 04:39:49;;;;;;;8.60;4.60;;;1.60;94.20;;;;;;5066004;28;20486;-66
2021/01/06 04:42:16;;;;;;;7.43;4.10;;;1.60;94.30;;;;;;5067087;28;20036;-66
2021/01/06 04:45:06;;;;;;;9.70;3.90;;;1.50;94.20;;;;;;5065784;28;20169;-66
2021/01/06 04:47:53;;;;;;;8.95;4.55;;;1.60;94.20;;;;;;5057613;28;20407;-66
2021/01/06 04:50:40;;;;;;;9.63;4.88;;;1.60;94.20;;;;;;5056760;28;20158;-66
2021/01/06 04:53:39;;;;;;;7.53;3.72;;;1.50;94.00;;;;;;5068027;28;20048;-66
2021/01/06 04:56:20;;;;;;;10.00;4.50;;;1.60;94.00;;;;;;5066646;28;20028;-66
2021/01/06 04:58:57;;;;;;;9.13;4.43;;;1.50;94.00;;;;;;5066816;28;20111;-66
2021/01/06 05:01:39;;;;;;;10.00;4.20;;;1.50;94.00;;;;;;5065708;28;20109;-66
2021/01/06 05:04:24;;;;;;;6.88;3.90;;;1.50;93.80;;;;;;5066736;28;20607;-67
2021/01/06 05:06:59;;;;;;;11.25;5.05;;;1.50;93.70;;;;;;5066737;28;20078;-67
2021/01/06 05:09:48;;;;;;;8.60;4.35;;;1.60;93.80;;;;;;5065991;28;20337;-66
2021/01/06 05:12:38;;;;;;;9.10;4.20;;;1.60;93.80;;;;;;5066499;28;20482;-66
2021/01/06 05:15:23;;;;;;;8.70;4.13;;;1.50;93.50;;;;;;5055011;28;20194;-66
2021/01/06 05:17:48;;;;;;;6.43;3.70;;;1.50;93.70;;;;;;5067274;28;20021;-66
2021/01/06 05:20:14;;;;;;;10.13;4.40;;;1.50;93.40;;;;;;5065455;28;20450;-66
2021/01/06 05:22:40;;;;;;;7.85;4.30;;;1.40;93.50;;;;;;5065469;28;20028;-66
2021/01/06 05:25:06;;;;;;;7.57;4.47;;;1.50;93.60;;;;;;5062043;28;20020;-66
2021/01/06 05:27:39;;;;;;;9.48;4.53;;;1.50;93.70;;;;;;5067195;28;20043;-67
2021/01/06 05:30:15;;;;;;;7.30;4.25;;;1.50;93.40;;;;;;5065169;28;20131;-69
2021/01/06 05:32:41;;;;;;;9.38;4.50;;;1.40;93.40;;;;;;5067171;28;20444;-69
2021/01/06 05:35:06;;;;;;;9.05;4.13;;;1.40;93.60;;;;;;5065913;28;20021;-68
2021/01/06 05:37:32;;;;;;;8.13;4.20;;;1.40;93.80;;;;;;5066742;28;20119;-68
2021/01/06 05:40:07;;;;;;;7.90;4.70;;;1.40;93.80;;;;;;5065219;28;20024;-68
2021/01/06 05:42:55;;;;;;;10.07;4.38;;;1.40;93.70;;;;;;5064035;28;20032;-69
2021/01/06 05:45:25;;;;;;;8.88;4.47;;;1.40;93.80;;;;;;5066685;28;20059;-68
2021/01/06 05:47:58;;;;;;;7.88;3.80;;;1.40;93.80;;;;;;5066441;28;20052;-68
2021/01/06 05:50:29;;;;;;;11.57;4.53;;;1.40;93.90;;;;;;5064065;28;20335;-69
2021/01/06 05:53:01;;;;;;;;;;;1.40;93.80;;;;;;5065590;28;20043;-67
2021/01/06 05:55:30;;;;;;;7.90;4.07;;;1.40;93.70;;;;;;5065374;28;20153;-67
2021/01/06 05:58:09;;;;;;;9.32;4.78;;;1.40;93.90;;;;;;5066723;28;20028;-67
2021/01/06 06:00:51;;;;;;;8.10;4.03;;;1.40;93.80;;;;;;5060767;28;20055;-68
2021/01/06 06:03:52;;;;;;;8.77;4.15;;;1.40;93.60;;;;;;5064666;28;20066;-68
2021/01/06 06:06:36;;;;;;;9.25;4.60;;;1.40;93.50;;;;;;5050758;28;20065;-67
2021/01/06 06:09:17;;;;;;;9.25;4.80;;;1.40;93.70;;;;;;5042674;28;20048;-68
2021/01/06 06:12:20;;;;;;;7.82;4.60;;;1.50;93.80;;;;;;5059150;28;20044;-67
2021/01/06 06:15:01;;;;;;;7.43;4.28;;;1.40;93.40;;;;;;5064409;28;20046;-67
2021/01/06 06:18:01;;;;;;;7.50;4.22;;;1.40;93.60;;;;;;5054127;28;20107;-67
2021/01/06 06:21:18;;;;;;;7.55;4.15;;;1.50;93.20;;;;;;5040020;28;20029;-68
2021/01/06 06:23:47;;;;;;;8.02;4.65;;;1.40;93.50;;;;;;4962312;28;20034;-67
2021/01/06 06:26:24;;;;;;;8.25;4.78;;;1.40;93.30;;;;;;5055333;28;20123;-67
2021/01/06 06:29:19;;;;;;;9.45;5.07;;;1.40;93.40;;;;;;5061729;28;20021;-67
2021/01/06 06:32:04;;;;;;;8.45;4.68;;;1.50;93.50;;;;;;5061208;28;20161;-68
2021/01/06 06:34:42;;;;;;;9.20;4.60;;;1.50;93.40;;;;;;5061615;28;20012;-67
2021/01/06 06:37:11;;;;;;;11.95;4.95;;;1.50;93.50;;;;;;5061805;28;20195;-68
2021/01/06 06:39:48;;;;;;;8.30;4.63;;;1.40;93.70;;;;;;5064204;28;20058;-67
2021/01/06 06:42:22;;;;;;;6.97;4.40;;;1.50;93.30;;;;;;5058994;28;20032;-67
2021/01/06 06:44:57;;;;;;;13.90;5.10;;;1.50;93.40;;;;;;5059881;28;20032;-67
2021/01/06 06:47:47;;;;;;;9.77;4.85;;;1.50;93.80;;;;;;5058057;28;20090;-67
2021/01/06 06:50:21;;;;;;;8.10;4.60;;;1.40;93.50;;;;;;5041532;28;20095;-67
2021/01/06 06:53:06;;;;;;;8.85;4.70;;;1.40;93.40;;;;;;5087178;28;20468;-68
2021/01/06 06:55:43;;;;;;;9.68;3.90;;;1.50;93.70;;;;;;5069208;28;20714;-67
2021/01/06 06:58:31;;;;;;;10.48;4.63;;;1.40;93.70;;;;;;5085869;28;20044;-67
2021/01/06 07:00:58;;;;;;;9.82;4.97;;;1.50;93.80;;;;;;5082588;28;20024;-67
2021/01/06 07:03:27;;;;;;;10.13;5.28;;;1.50;94.00;;;;;;5085047;28;20024;-67
2021/01/06 07:06:02;;;;;;;10.70;5.15;;;1.40;94.00;;;;;;5082917;28;20615;-67
2021/01/06 07:08:36;;;;;;;11.23;5.45;;;1.40;93.60;;;;;;5076355;28;20097;-67
2021/01/06 07:11:05;;;;;;;10.05;5.38;;;1.40;93.80;;;;;;5078619;28;20433;-68
2021/01/06 07:13:33;;;;;;;9.30;4.90;;;1.50;94.10;;;;;;5085326;28;20127;-67
2021/01/06 07:16:01;;;;;;;10.00;5.65;;;1.40;93.80;;;;;;5076456;28;20109;-67
2021/01/06 07:18:46;;;;;;;8.63;5.03;;;1.40;94.00;;;;;;5085754;28;20448;-67
2021/01/06 07:21:11;;;;;;;10.40;5.15;;;1.40;94.00;;;;;;5081921;28;20028;-67
2021/01/06 07:23:48;;;;;;;7.95;4.70;;;1.40;93.80;;;;;;5080582;28;20364;-67
2021/01/06 07:26:19;;;;;;;10.68;5.63;;;1.40;94.00;;;;;;5082392;28;20173;-67
2021/01/06 07:28:45;;;;;;;;;;;1.40;94.10;;;;;;5084292;28;20052;-68
2021/01/06 07:31:12;;;;;;;11.15;5.25;;;1.40;94.20;;;;;;5061748;28;19912;-67
2021/01/06 07:33:41;;;;;;;10.57;5.05;;;1.40;94.00;;;;;;5073563;28;20028;-67
2021/01/06 07:36:24;;;;;;;11.13;5.60;;;1.40;94.00;;;;;;5079889;28;20130;-67
2021/01/06 07:38:51;;;;;;;11.45;5.78;;;1.40;93.90;;;;;;5082658;28;20036;-67
2021/01/06 07:41:19;;;;;;;8.85;5.15;;;1.40;94.10;;;;;;5070397;28;20048;-67
2021/01/06 07:44:07;;;;;;;13.30;5.38;;;1.40;93.90;;;;;;5077837;28;20129;-68
2021/01/06 07:47:24;;;;;;;9.77;5.05;;;1.40;94.00;;;;;;5085611;28;20047;-67
2021/01/06 07:50:09;;;;;;;12.15;5.95;;;1.40;93.70;;;;;;5034590;28;20036;-67
2021/01/06 07:53:05;;;;;;;10.93;5.07;;;1.40;94.00;;;;;;5082265;28;20035;-66
2021/01/06 07:55:33;;;;;;;9.80;5.90;;;1.40;94.10;;;;;;5086000;28;20027;-67
2021/01/06 07:58:10;;;;;;;9.02;4.88;;;1.40;94.20;;;;;;5087534;28;20041;-67
2021/01/06 08:00:43;;;;;;;10.45;5.68;;;1.40;94.00;;;;;;5081477;28;20025;-68
2021/01/06 08:03:19;;;;;;;11.15;5.75;;;1.40;94.00;;;;;;5082628;28;20077;-67
2021/01/06 08:05:54;;;;;;;11.95;5.63;;;1.50;94.00;;;;;;5070088;28;20383;-68
2021/01/06 08:08:20;;;;;;;11.10;5.93;;;1.50;94.00;;;;;;5090910;28;20031;-67
2021/01/06 08:10:48;;;;;;;9.93;5.55;;;1.40;94.10;;;;;;5088849;28;20024;-66
2021/01/06 08:13:19;;;;;;;11.10;5.90;;;1.40;94.20;;;;;;5066278;28;20047;-67
2021/01/06 08:15:47;;;;;;;9.88;5.57;;;1.40;94.20;;;;;;5088272;28;20389;-68
2021/01/06 08:18:50;;;;;;;10.05;5.80;;;1.40;94.30;;;;;;5086040;28;20036;-67
2021/01/06 08:21:24;;;;;;;11.00;6.45;;;1.30;94.50;;;;;;5077415;28;20054;-67
2021/01/06 08:24:04;;;;;;;11.55;6.43;;;1.40;94.60;;;;;;5083032;28;20043;-66
2021/01/06 08:26:31;;;;;;;10.25;6.20;;;1.40;95.00;;;;;;5087490;28;20503;-67
2021/01/06 08:29:30;;;;;;;10.40;6.55;;;1.40;95.00;;;;;;5082277;28;20048;-68
2021/01/06 08:32:03;;;;;;;12.60;6.55;;;1.30;95.00;;;;;;5085545;28;20039;-67
2021/01/06 08:34:35;;;;;;;14.63;7.90;;;1.30;95.10;;;;;;5088026;28;20101;-67
2021/01/06 08:37:06;;;;;;;10.65;6.70;;;1.30;95.30;;;;;;5087257;28;20024;-67
2021/01/06 08:39:56;;;;;;;12.75;7.70;;;1.30;95.30;;;;;;5085958;28;20103;-67
2021/01/06 08:42:25;;;;;;;16.37;7.13;;;1.30;95.50;;;;;;5077527;28;20024;-68
2021/01/06 08:44:54;;;;;;;12.48;7.35;;;1.30;95.60;;;;;;5082933;28;20361;-67
2021/01/06 08:47:29;;;;;;;13.43;7.03;;;1.20;95.60;;;;;;5084872;28;20036;-67
2021/01/06 08:50:10;;;;;;;11.05;6.30;;;1.30;95.80;;;;;;5082256;28;20736;-67
2021/01/06 08:52:36;;;;;;;11.43;6.80;;;1.20;95.70;;;;;;5086310;28;20107;-67
2021/01/06 08:55:22;;;;;;;12.77;6.00;;;1.20;95.70;;;;;;5084685;28;20119;-67
2021/01/06 08:58:01;;;;;;;12.25;7.05;;;1.10;95.50;;;;;;5090350;28;20448;-67
2021/01/06 09:00:29;;;;;;;12.40;7.20;;;1.10;95.60;;;;;;5064157;28;20063;-68
2021/01/06 09:03:14;;;;;;;11.80;7.13;;;1.10;95.70;;;;;;5067649;28;20052;-67
2021/01/06 09:05:43;;;;;;;12.77;6.53;;;1.10;95.80;;;;;;5077995;28;20061;-67
2021/01/06 09:08:31;;;;;;;12.05;6.15;;;1.10;95.90;;;;;;5084191;28;20148;-66
2021/01/06 09:11:00;;;;;;;11.77;6.72;;;1.10;95.90;;;;;;5085347;28;20036;-67
2021/01/06 09:13:33;;;;;;;12.25;6.95;;;1.10;96.00;;;;;;5078352;28;20118;-68
2021/01/06 09:16:34;;;;;;;9.50;6.15;;;1.10;96.00;;;;;;5091537;28;20111;-67
2021/01/06 09:19:25;;;;;;;11.18;6.35;;;1.10;96.00;;;;;;5082302;28;20097;-67
2021/01/06 09:21:51;;;;;;;11.43;6.07;;;1.10;96.00;;;;;;5082358;28;20107;-68
2021/01/06 09:24:25;;;;;;;13.40;6.82;;;1.10;96.10;;;;;;5084475;28;20028;-68
2021/01/06 09:26:55;;;;;;;29.50;22.77;;;1.10;96.10;;;;;;5084882;28;20385;-67
2021/01/06 09:29:22;;;;;;;10.32;6.10;;;1.20;96.20;;;;;;5079505;28;20047;-67
2021/01/06 09:31:52;;;;;;;16.73;8.93;;;1.10;96.00;;;;;;5089851;28;20080;-66
2021/01/06 09:34:24;;;;;;;13.32;8.90;;;1.20;96.20;;;;;;5080998;28;20515;-66
2021/01/06 09:36:50;;;;;;;14.95;7.03;;;1.20;96.00;;;;;;5083761;28;20032;-67
2021/01/06 09:39:23;;;;;;;11.10;6.80;;;1.20;96.10;;;;;;5078914;28;20043;-66
2021/01/06 09:41:53;;;;;;;15.45;10.82;;;1.20;96.10;;;;;;5051194;28;20043;-66
2021/01/06 09:44:19;;;;;;;13.02;8.88;;;1.20;96.00;;;;;;5081106;28;20051;-66
2021/01/06 09:46:54;;;;;;;11.80;8.30;;;1.10;95.90;;;;;;5082861;28;20055;-66
2021/01/06 09:49:31;;;;;;;11.88;6.85;;;1.10;95.90;;;;;;5092032;28;20102;-66
2021/01/06 09:52:02;;;;;;;13.15;7.93;;;1.20;96.10;;;;;;5079773;28;20062;-67
2021/01/06 09:54:28;;;;;;;13.40;7.03;;;1.10;96.00;;;;;;5060907;28;20043;-67
2021/01/06 09:56:55;;;;;;;12.48;7.03;;;1.20;96.00;;;;;;5065606;28;20169;-67
2021/01/06 09:59:33;;;;;;;9.95;6.63;;;1.20;96.10;;;;;;5065270;28;20031;-67
2021/01/06 10:02:02;;;;;;;11.65;7.47;;;1.20;96.00;;;;;;5065953;28;20612;-67
2021/01/06 10:04:33;;;;;;;11.57;7.10;;;1.30;96.20;;;;;;5048248;28;20061;-67
2021/01/06 10:07:42;;;;;;;9.15;5.88;;;1.40;96.00;;;;;;5065444;28;20254;-68
2021/01/06 10:10:16;;;;;;;12.63;6.00;;;1.40;95.90;;;;;;5070708;28;20032;-67
2021/01/06 10:13:17;;;;;;;11.32;6.05;;;1.40;95.70;;;;;;5065962;28;22080;-67
2021/01/06 10:15:49;;;;;;;10.75;6.38;;;1.50;95.80;;;;;;5066510;28;20483;-67
2021/01/06 10:18:41;;;;;;;9.68;5.57;;;1.50;95.60;;;;;;5043922;28;20043;-67
2021/01/06 10:21:13;;;;;;;13.65;9.93;;;1.60;95.70;;;;;;5030819;28;20044;-67
2021/01/06 10:23:45;;;;;;;9.13;6.18;;;1.50;95.40;;;;;;5066665;28;20027;-67
2021/01/06 10:26:38;;;;;;;9.73;5.82;;;1.40;95.40;;;;;;5044673;28;20066;-67
2021/01/06 10:29:19;;;;;;;12.05;5.93;;;1.50;95.60;;;;;;5084267;28;20087;-67
2021/01/06 10:32:20;;;;;;;10.52;6.25;;;1.50;95.50;;;;;;5077965;28;20028;-67
2021/01/06 10:35:05;;;;;;;10.20;5.53;;;1.40;95.50;;;;;;5077030;28;20048;-67
2021/01/06 10:37:31;;;;;;;10.75;6.22;;;1.40;95.60;;;;;;5079897;28;20020;-67
2021/01/06 10:39:58;;;;;;;10.02;5.65;;;1.40;95.80;;;;;;5073060;28;20042;-67
2021/01/06 10:42:24;;;;;;;8.88;5.63;;;1.40;95.80;;;;;;5069167;28;20023;-67
2021/01/06 10:44:51;;;;;;;10.65;6.97;;;1.40;95.80;;;;;;5082287;28;20020;-65
2021/01/06 10:47:32;;;;;;;10.60;6.10;;;1.40;95.90;;;;;;5077883;28;20016;-68
2021/01/06 10:49:59;;;;;;;;;;;1.30;95.70;;;;;;5079055;28;20166;-66
2021/01/06 10:52:35;;;;;;;8.75;5.90;;;1.40;95.60;;;;;;5068016;28;20389;-67
2021/01/06 10:55:06;;;;;;;11.35;6.55;;;1.40;95.60;;;;;;5082857;28;20135;-67
2021/01/06 10:57:37;;;;;;;9.25;5.88;;;1.40;95.60;;;;;;5075857;28;20032;-67
2021/01/06 11:00:41;;;;;;;9.75;6.32;;;1.40;95.60;;;;;;5078087;28;20483;-67
2021/01/06 11:03:26;;;;;;;10.77;6.43;;;1.40;95.50;;;;;;5035541;28;20083;-67
2021/01/06 11:05:51;;;;;;;11.63;7.13;;;1.50;95.80;;;;;;5040493;28;20083;-67
2021/01/06 11:08:19;;;;;;;8.98;5.80;;;1.50;95.70;;;;;;5038968;28;20591;-68
2021/01/06 11:10:58;;;;;;;10.35;8.15;;;1.50;95.30;;;;;;5081737;28;20100;-67
2021/01/06 11:13:52;;;;;;;9.88;6.20;;;1.60;95.50;;;;;;5083733;28;20566;-67
2021/01/06 11:16:26;;;;;;;10.13;5.93;;;1.60;95.50;;;;;;5085191;28;20350;-67
2021/01/06 11:18:53;;;;;;;9.35;5.50;;;1.70;95.60;;;;;;5078476;28;20346;-67
2021/01/06 11:21:41;;;;;;;8.95;5.28;;;1.70;95.40;;;;;;5077352;28;20564;-66
2021/01/06 11:24:44;;;;;;;9.50;5.93;;;1.70;95.30;;;;;;5078706;28;20036;-67
2021/01/06 11:27:53;;;;;;;7.97;5.05;;;1.70;95.20;;;;;;5070643;28;20033;-67
2021/01/06 11:30:26;;;;;;;8.15;5.55;;;1.70;95.00;;;;;;5082280;28;20036;-66
2021/01/06 11:33:13;;;;;;;9.55;4.70;;;1.60;95.00;;;;;;5068023;28;20039;-67
2021/01/06 11:36:21;;;;;;;8.02;4.97;;;1.60;95.20;;;;;;5086150;28;20123;-67
2021/01/06 11:38:54;;;;;;;8.93;5.03;;;1.60;95.10;;;;;;5004274;28;20032;-67
2021/01/06 11:41:25;;;;;;;9.05;6.03;;;1.50;95.00;;;;;;5088228;28;20020;-67
2021/01/06 11:44:06;;;;;;;8.90;5.85;;;1.60;95.00;;;;;;5066862;28;20081;-66
2021/01/06 11:46:50;;;;;;;10.07;5.55;;;1.60;94.90;;;;;;5088312;28;20044;-67
2021/01/06 11:49:22;;;;;;;8.02;4.70;;;1.60;95.00;;;;;;5084689;28;20051;-67
2021/01/06 11:52:03;;;;;;;8.65;4.70;;;1.60;95.00;;;;;;5069849;28;20076;-67
2021/01/06 11:54:34;;;;;;;8.38;4.63;;;1.50;94.90;;;;;;5077426;28;20082;-67
2021/01/06 11:57:19;;;;;;;10.05;4.40;;;1.50;94.80;;;;;;5084299;28;20032;-67
2021/01/06 12:00:10;;;;;;;8.68;4.63;;;1.50;95.00;;;;;;5074742;28;20035;-66
2021/01/06 12:02:44;;;;;;;11.52;6.80;;;1.60;95.30;;;;;;5080488;28;20582;-67
2021/01/06 12:05:23;;;;;;;11.15;6.55;;;1.60;95.40;;;;;;5087604;28;20028;-67
2021/01/06 12:08:11;;;;;;;7.93;4.85;;;1.60;95.50;;;;;;5069809;22;22190;-67
2021/01/06 12:11:03;;;;;;;6.68;4.28;;;1.50;95.40;;;;;;5067548;28;20036;-67
2021/01/06 12:14:06;;;;;;;7.97;3.90;;;1.50;95.40;;;;;;5058713;28;20091;-67
2021/01/06 12:17:12;;;;;;;6.20;3.80;;;1.50;95.40;;;;;;5048361;28;20090;-68
2021/01/06 12:23:15;;;;;;;7.70;4.50;;;1.50;95.40;;;;;;5115905;22;20086;-67
2021/01/06 12:25:52;;;;;;;6.25;3.65;;;1.60;95.50;;;;;;5101161;27;20076;-66
2021/01/06 12:28:45;;;;;;;6.57;4.00;;;1.50;95.20;;;;;;5103173;28;20015;-66
2021/01/06 12:31:20;;;;;;;6.93;4.10;;;1.40;95.50;;;;;;5097893;28;20108;-66
2021/01/06 12:34:01;;;;;;;9.40;4.53;;;1.50;95.70;;;;;;5073066;28;20119;-66
2021/01/06 12:36:31;;;;;;;;;;;1.50;95.70;;;;;;5097056;28;20111;-66
2021/01/06 12:39:25;;;;;;;7.28;4.38;;;1.40;95.60;;;;;;5097599;28;19914;-66
2021/01/06 12:42:22;;;;;;;8.48;4.38;;;1.40;95.90;;;;;;5091327;28;20023;-65
2021/01/06 12:45:11;;;;;;;7.38;4.47;;;1.40;96.00;;;;;;5082616;28;20043;-66
2021/01/06 12:48:01;;;;;;;8.63;4.65;;;1.40;95.90;;;;;;5073688;28;20034;-65
2021/01/06 12:50:55;;;;;;;7.40;4.72;;;1.20;95.70;;;;;;5073372;28;20097;-66
2021/01/06 12:53:29;;;;;;;6.82;3.75;;;1.30;96.00;;;;;;5076093;28;20027;-66
2021/01/06 12:56:04;;;;;;;7.25;4.50;;;1.30;96.00;;;;;;5069579;28;20039;-65
2021/01/06 12:58:41;;;;;;;11.02;4.75;;;1.20;96.10;;;;;;5050531;28;20098;-66
2021/01/06 13:01:29;;;;;;;6.93;4.30;;;1.30;96.20;;;;;;5062716;28;20491;-66
2021/01/06 13:03:58;;;;;;;7.47;4.70;;;1.10;96.10;;;;;;5055723;28;20734;-66
2021/01/06 13:06:39;;;;;;;7.70;4.57;;;1.20;96.20;;;;;;5054772;28;20465;-66
2021/01/06 13:09:11;;;;;;;8.27;5.30;;;1.20;96.10;;;;;;5058766;28;20024;-66
2021/01/06 13:11:37;;;;;;;7.50;4.57;;;1.20;96.30;;;;;;5054814;28;20023;-66
2021/01/06 13:14:34;;;;;;;6.28;4.25;;;1.10;96.30;;;;;;5060585;28;20025;-66
2021/01/06 13:17:03;;;;;;;8.68;4.85;;;1.20;96.40;;;;;;5037940;28;20399;-66
2021/01/06 13:19:37;;;;;;;6.57;3.97;;;1.20;96.30;;;;;;5064026;28;20044;-66
2021/01/06 13:22:36;;;;;;;7.15;3.80;;;1.20;96.40;;;;;;5060304;28;20538;-66
2021/01/06 13:25:11;;;;;;;6.22;3.90;;;1.20;96.30;;;;;;5054690;28;20060;-66
2021/01/06 13:27:46;;;;;;;10.05;4.65;;;1.10;96.20;;;;;;5056446;28;20031;-66
2021/01/06 13:30:16;;;;;;;7.50;4.57;;;1.00;96.10;;;;;;5050547;28;20147;-66
2021/01/06 13:32:50;;;;;;;7.05;4.55;;;1.00;96.20;;;;;;5052511;28;20107;-64
2021/01/06 13:35:39;;;;;;;8.43;4.65;;;1.00;96.40;;;;;;5047025;28;20122;-66
2021/01/06 13:38:16;;;;;;;12.45;8.35;;;1.00;96.40;;;;;;5054377;28;20401;-66
2021/01/06 13:40:46;;;;;;;8.80;4.60;;;1.00;96.40;;;;;;5050777;28;20075;-67
2021/01/06 13:43:37;;;;;;;61.65;45.58;;;1.00;96.40;;;;;;5064100;28;20043;-66